Time,TemperatureF,DewpointF,PressureIn,WindDirection,WindDirectionDegrees,WindSpeedMPH,WindSpeedGustMPH,Humidity,HourlyPrecipIn,Conditions,Clouds,dailyrainin,SolarRadiationWatts/m^2,SoftwareType,DateUTC
2013-12-06 00:02:00,-5.5,-10.3,30.42,NW,306,0.0,6.0,79,0.00,-DZ BR,OVC VV000 1/4SM,0.00,0.0,WUHU216DAVISVP2,2013-12-06 06:02:00,
2013-12-06 00:07:00,-5.6,-10.4,30.42,WNW,286,1.0,6.0,79,0.00,-DZ BR,OVC VV000 1/4SM,0.00,0.0,WUHU216DAVISVP2,2013-12-06 06:07:00,
2013-12-06 00:12:00,-5.7,-10.5,30.42,WNW,284,0.0,6.0,79,0.00,-DZ BR,OVC VV000 1/4SM,0.00,0.0,WUHU216DAVISVP2,2013-12-06 06:12:00,
2013-12-06 00:17:00,-5.8,-10.6,30.43,NW,306,0.0,6.0,79,0.00,-DZ BR,OVC VV000 1/4SM,0.00,0.0,WUHU216DAVISVP2,2013-12-06 06:17:00,
2013-12-06 00:22:00,-6.0,-10.8,30.43,WNW,296,0.0,6.0,79,0.00,-DZ BR,OVC VV000 1/4SM,0.00,0.0,WUHU216DAVISVP2,2013-12-06 06:22:00,
2013-12-06 00:27:00,-6.1,-10.9,30.42,WNW,283,1.0,6.0,79,0.00,-DZ BR,OVC VV000 1/4SM,0.00,0.0,WUHU216DAVISVP2,2013-12-06 06:27:00,
2013-12-06 00:32:00,-6.2,-11.0,30.42,NW,313,0.0,5.0,79,0.00,-DZ BR,OVC VV000 1/4SM,0.00,0.0,WUHU216DAVISVP2,2013-12-06 06:32:00,
2013-12-06 00:37:00,-6.4,-11.2,30.43,NW,321,0.0,5.0,79,0.00,-DZ BR,OVC VV000 1/4SM,0.00,0.0,WUHU216DAVISVP2,2013-12-06 06:37:00,
2013-12-06 00:42:00,-6.5,-11.3,30.43,West,277,0.0,6.0,79,0.00,-DZ BR,OVC VV000 1/4SM,0.00,0.0,WUHU216DAVISVP2,2013-12-06 06:42:00,
2013-12-06 00:47:00,-6.6,-11.4,30.43,NW,311,0.0,6.0,79,0.00,-DZ BR,OVC VV000 1/4SM,0.00,0.0,WUHU216DAVISVP2,2013-12-06 06:47:00,
2013-12-06 00:52:00,-6.6,-11.4,30.43,WNW,297,4.0,8.0,79,0.00,-DZ BR,OVC VV000 1/4SM,0.00,0.0,WUHU216DAVISVP2,2013-12-06 06:52:00,
2013-12-06 00:57:00,-6.7,-11.3,30.43,West,267,6.0,8.0,80,0.00,-DZ BR,OVC VV000 1/4SM,0.00,0.0,WUHU216DAVISVP2,2013-12-06 06:57:00,
2013-12-06 01:02:00,-6.7,-11.2,30.43,WNW,303,2.0,6.0,80,0.00,-DZ BR,OVC VV000 1/4SM,0.00,0.0,WUHU216DAVISVP2,2013-12-06 07:02:00,
2013-12-06 01:07:00,-6.7,-11.3,30.43,WNW,290,0.0,6.0,80,0.00,-DZ BR,OVC VV000 1/4SM,0.00,0.0,WUHU216DAVISVP2,2013-12-06 07:07:00,
2013-12-06 01:12:00,-6.8,-11.6,30.43,West,271,1.0,6.0,79,0.00,-DZ BR,OVC VV000 1/4SM,0.00,0.0,WUHU216DAVISVP2,2013-12-06 07:12:00,
2013-12-06 01:17:00,-6.9,-11.7,30.43,WNW,303,0.0,5.0,79,0.00,-DZ BR,OVC VV000 1/4SM,0.00,0.0,WUHU216DAVISVP2,2013-12-06 07:17:00,
2013-12-06 01:22:00,-7.0,-11.8,30.43,WSW,244,0.0,7.0,79,0.00,-DZ BR,OVC VV000 1/4SM,0.00,0.0,WUHU216DAVISVP2,2013-12-06 07:22:00,
2013-12-06 01:27:00,-7.1,-11.9,30.44,West,272,0.0,7.0,79,0.00,-DZ BR,OVC VV000 1/4SM,0.00,0.0,WUHU216DAVISVP2,2013-12-06 07:27:00,
2013-12-06 01:32:00,-7.1,-11.6,30.44,WSW,256,0.0,2.0,80,0.00,-DZ BR,OVC VV000 1/4SM,0.00,0.0,WUHU216DAVISVP2,2013-12-06 07:32:00,
2013-12-06 01:37:00,-7.2,-11.7,30.45,SW,228,0.0,2.0,80,0.00,-DZ BR,OVC VV000 1/4SM,0.00,0.0,WUHU216DAVISVP2,2013-12-06 07:37:00,
2013-12-06 01:42:00,-7.1,-11.6,30.44,WNW,289,0.0,6.0,80,0.00,-DZ BR,OVC VV000 1/4SM,0.00,0.0,WUHU216DAVISVP2,2013-12-06 07:42:00,
2013-12-06 01:47:00,-7.1,-11.6,30.44,West,277,0.0,6.0,80,0.00,-DZ BR,OVC VV000 1/4SM,0.00,0.0,WUHU216DAVISVP2,2013-12-06 07:47:00,
2013-12-06 01:52:00,-7.1,-11.9,30.44,WSW,242,0.0,6.0,79,0.00,-DZ BR,OVC VV000 1/4SM,0.00,0.0,WUHU216DAVISVP2,2013-12-06 07:52:00,
2013-12-06 01:57:00,-7.3,-12.1,30.45,WSW,242,0.0,6.0,79,0.00,-DZ BR,OVC VV000 1/4SM,0.00,0.0,WUHU216DAVISVP2,2013-12-06 07:57:00,
2013-12-06 02:02:00,-7.4,-11.9,30.45,WSW,239,0.0,3.0,80,0.00,-DZ BR,OVC VV000 1/4SM,0.00,0.0,WUHU216DAVISVP2,2013-12-06 08:02:00,
2013-12-06 02:07:00,-7.5,-12.3,30.46,SW,223,0.0,3.0,79,0.00,-DZ BR,OVC VV000 1/4SM,0.00,0.0,WUHU216DAVISVP2,2013-12-06 08:07:00,
2013-12-06 02:12:00,-7.9,-12.7,30.45,SW,214,0.0,2.0,79,0.00,-DZ BR,OVC VV000 1/4SM,0.00,0.0,WUHU216DAVISVP2,2013-12-06 08:12:00,
2013-12-06 02:17:00,-7.9,-12.4,30.46,West,260,1.0,4.0,80,0.00,-DZ BR,OVC VV000 1/4SM,0.00,0.0,WUHU216DAVISVP2,2013-12-06 08:17:00,
2013-12-06 02:22:00,-7.9,-12.4,30.46,West,277,0.0,4.0,80,0.00,-DZ BR,OVC VV000 1/4SM,0.00,0.0,WUHU216DAVISVP2,2013-12-06 08:22:00,
2013-12-06 02:27:00,-7.9,-12.4,30.46,West,263,5.0,5.0,80,0.00,-DZ BR,OVC VV000 1/4SM,0.00,0.0,WUHU216DAVISVP2,2013-12-06 08:27:00,
2013-12-06 02:32:00,-7.9,-12.4,30.46,SW,223,0.0,8.0,80,0.00,-DZ BR,OVC VV000 1/4SM,0.00,0.0,WUHU216DAVISVP2,2013-12-06 08:32:00,
2013-12-06 02:37:00,-7.9,-12.4,30.45,WNW,293,0.0,8.0,80,0.00,-DZ BR,OVC VV000 1/4SM,0.00,0.0,WUHU216DAVISVP2,2013-12-06 08:37:00,
2013-12-06 02:42:00,-7.8,-12.3,30.46,West,268,0.0,5.0,80,0.00,-DZ BR,OVC VV000 1/4SM,0.00,0.0,WUHU216DAVISVP2,2013-12-06 08:42:00,
2013-12-06 02:47:00,-7.8,-12.3,30.46,WSW,254,0.0,4.0,80,0.00,-DZ BR,OVC VV000 1/4SM,0.00,0.0,WUHU216DAVISVP2,2013-12-06 08:47:00,
2013-12-06 02:52:00,-8.0,-12.5,30.45,WSW,247,0.0,1.0,80,0.00,-DZ BR,OVC VV000 1/4SM,0.00,0.0,WUHU216DAVISVP2,2013-12-06 08:52:00,
2013-12-06 02:57:00,-8.0,-12.5,30.46,WSW,244,0.0,0.0,80,0.00,-DZ BR,OVC VV000 1/4SM,0.00,0.0,WUHU216DAVISVP2,2013-12-06 08:57:00,
2013-12-06 03:02:00,-8.2,-12.7,30.46,WSW,241,0.0,0.0,80,0.00,-DZ BR,OVC VV000 1/4SM,0.00,0.0,WUHU216DAVISVP2,2013-12-06 09:02:00,
2013-12-06 03:07:00,-8.4,-12.9,30.46,SW,231,0.0,0.0,80,0.00,-DZ BR,OVC VV000 1/4SM,0.00,0.0,WUHU216DAVISVP2,2013-12-06 09:07:00,
2013-12-06 03:12:00,-8.5,-13.0,30.46,West,280,0.0,0.0,80,0.00,-DZ BR,OVC VV000 1/4SM,0.00,0.0,WUHU216DAVISVP2,2013-12-06 09:12:00,
2013-12-06 03:17:00,-8.5,-13.0,30.46,West,279,0.0,1.0,80,0.00,-DZ BR,OVC VV000 1/4SM,0.00,0.0,WUHU216DAVISVP2,2013-12-06 09:17:00,
2013-12-06 03:22:00,-8.5,-13.0,30.46,NW,315,0.0,1.0,80,0.00,-DZ BR,OVC VV000 1/4SM,0.00,0.0,WUHU216DAVISVP2,2013-12-06 09:22:00,
2013-12-06 03:27:00,-8.6,-13.1,30.46,NW,315,0.0,0.0,80,0.00,-DZ BR,OVC VV000 1/4SM,0.00,0.0,WUHU216DAVISVP2,2013-12-06 09:27:00,
2013-12-06 03:32:00,-8.6,-13.1,30.45,WNW,302,0.0,3.0,80,0.00,-DZ BR,OVC VV000 1/4SM,0.00,0.0,WUHU216DAVISVP2,2013-12-06 09:32:00,
2013-12-06 03:37:00,-8.6,-13.1,30.46,WNW,302,0.0,3.0,80,0.00,-DZ BR,OVC VV000 1/4SM,0.00,0.0,WUHU216DAVISVP2,2013-12-06 09:37:00,
2013-12-06 03:42:00,-8.8,-13.3,30.46,West,276,0.0,2.0,80,0.00,-DZ BR,OVC VV000 1/4SM,0.00,0.0,WUHU216DAVISVP2,2013-12-06 09:42:00,
2013-12-06 03:47:00,-8.8,-13.3,30.46,WSW,254,0.0,2.0,80,0.00,-DZ BR,OVC VV000 1/4SM,0.00,0.0,WUHU216DAVISVP2,2013-12-06 09:47:00,
2013-12-06 03:52:00,-8.9,-13.4,30.46,WNW,288,0.0,2.0,80,0.00,-DZ BR,OVC VV000 1/4SM,0.00,0.0,WUHU216DAVISVP2,2013-12-06 09:52:00,
2013-12-06 03:57:00,-9.0,-13.5,30.46,NW,307,0.0,6.0,80,0.00,-DZ BR,OVC VV000 1/4SM,0.00,0.0,WUHU216DAVISVP2,2013-12-06 09:57:00,
2013-12-06 04:02:00,-8.9,-13.4,30.46,WNW,287,0.0,6.0,80,0.00,-DZ BR,OVC VV000 1/4SM,0.00,0.0,WUHU216DAVISVP2,2013-12-06 10:02:00,
2013-12-06 04:07:00,-9.0,-13.5,30.46,West,277,0.0,4.0,80,0.00,-DZ BR,OVC VV000 1/4SM,0.00,0.0,WUHU216DAVISVP2,2013-12-06 10:07:00,
2013-12-06 04:12:00,-8.9,-13.4,30.46,WNW,300,0.0,3.0,80,0.00,-DZ BR,OVC VV000 1/4SM,0.00,0.0,WUHU216DAVISVP2,2013-12-06 10:12:00,
2013-12-06 04:17:00,-8.9,-13.4,30.47,NW,322,0.0,3.0,80,0.00,-DZ BR,OVC VV000 1/4SM,0.00,0.0,WUHU216DAVISVP2,2013-12-06 10:17:00,
2013-12-06 04:22:00,-8.9,-13.4,30.47,WNW,292,0.0,1.0,80,0.00,-DZ BR,OVC VV000 1/4SM,0.00,0.0,WUHU216DAVISVP2,2013-12-06 10:22:00,
2013-12-06 04:27:00,-9.0,-13.5,30.48,West,281,0.0,1.0,80,0.00,-DZ BR,OVC VV000 1/4SM,0.00,0.0,WUHU216DAVISVP2,2013-12-06 10:27:00,
2013-12-06 04:32:00,-9.0,-13.5,30.48,WSW,256,0.0,0.0,80,0.00,-DZ BR,OVC VV000 1/4SM,0.00,0.0,WUHU216DAVISVP2,2013-12-06 10:32:00,
2013-12-06 04:37:00,-9.1,-13.6,30.48,WSW,244,0.0,0.0,80,0.00,-DZ BR,OVC VV000 1/4SM,0.00,0.0,WUHU216DAVISVP2,2013-12-06 10:37:00,
2013-12-06 04:42:00,-9.1,-13.6,30.49,WNW,284,0.0,0.0,80,0.00,-DZ BR,OVC VV000 1/4SM,0.00,0.0,WUHU216DAVISVP2,2013-12-06 10:42:00,
2013-12-06 04:47:00,-9.2,-13.7,30.49,NW,306,0.0,3.0,80,0.00,-DZ BR,OVC VV000 1/4SM,0.00,0.0,WUHU216DAVISVP2,2013-12-06 10:47:00,
2013-12-06 04:52:00,-9.3,-13.8,30.49,West,281,0.0,4.0,80,0.00,-DZ BR,OVC VV000 1/4SM,0.00,0.0,WUHU216DAVISVP2,2013-12-06 10:52:00,
2013-12-06 04:57:00,-9.3,-13.8,30.49,West,270,0.0,4.0,80,0.00,-DZ BR,OVC VV000 1/4SM,0.00,0.0,WUHU216DAVISVP2,2013-12-06 10:57:00,
2013-12-06 05:02:00,-9.3,-13.8,30.49,West,279,0.0,6.0,80,0.00,-DZ BR,OVC VV000 1/4SM,0.00,0.0,WUHU216DAVISVP2,2013-12-06 11:02:00,
2013-12-06 05:07:00,-9.3,-13.8,30.49,WNW,296,0.0,6.0,80,0.00,-DZ BR,OVC VV000 1/4SM,0.00,0.0,WUHU216DAVISVP2,2013-12-06 11:07:00,
2013-12-06 05:12:00,-9.3,-13.8,30.49,West,261,0.0,3.0,80,0.00,-DZ BR,OVC VV000 1/4SM,0.00,0.0,WUHU216DAVISVP2,2013-12-06 11:12:00,
2013-12-06 05:17:00,-9.3,-13.8,30.49,NW,311,0.0,6.0,80,0.00,-DZ BR,OVC VV000 1/4SM,0.00,0.0,WUHU216DAVISVP2,2013-12-06 11:17:00,
2013-12-06 05:22:00,-9.4,-13.9,30.49,WNW,288,0.0,7.0,80,0.00,-DZ BR,OVC VV000 1/4SM,0.00,0.0,WUHU216DAVISVP2,2013-12-06 11:22:00,
2013-12-06 05:27:00,-9.5,-14.0,30.49,WNW,296,4.0,7.0,80,0.00,-DZ BR,OVC VV000 1/4SM,0.00,0.0,WUHU216DAVISVP2,2013-12-06 11:27:00,
2013-12-06 05:32:00,-9.5,-14.0,30.49,NW,317,6.0,6.0,80,0.00,-DZ BR,OVC VV000 1/4SM,0.00,0.0,WUHU216DAVISVP2,2013-12-06 11:32:00,
2013-12-06 05:37:00,-9.7,-14.2,30.49,NW,311,0.0,6.0,80,0.00,-DZ BR,OVC VV000 1/4SM,0.00,0.0,WUHU216DAVISVP2,2013-12-06 11:37:00,
2013-12-06 05:42:00,-9.8,-14.3,30.50,WNW,287,0.0,5.0,80,0.00,-DZ BR,OVC VV000 1/4SM,0.00,0.0,WUHU216DAVISVP2,2013-12-06 11:42:00,
2013-12-06 05:47:00,-9.8,-14.3,30.50,WNW,299,1.0,6.0,80,0.00,-DZ BR,OVC VV000 1/4SM,0.00,0.0,WUHU216DAVISVP2,2013-12-06 11:47:00,
2013-12-06 05:52:00,-9.8,-14.3,30.50,WSW,255,0.0,6.0,80,0.00,-DZ BR,OVC VV000 1/4SM,0.00,0.0,WUHU216DAVISVP2,2013-12-06 11:52:00,
2013-12-06 05:57:00,-9.9,-14.6,30.50,WNW,290,0.0,6.0,79,0.00,-DZ BR,OVC VV000 1/4SM,0.00,0.0,WUHU216DAVISVP2,2013-12-06 11:57:00,
2013-12-06 06:02:00,-10.0,-14.5,30.51,West,276,0.0,4.0,80,0.00,-DZ BR,OVC VV000 1/4SM,0.00,0.0,WUHU216DAVISVP2,2013-12-06 12:02:00,
2013-12-06 06:07:00,-10.1,-14.6,30.51,West,281,0.0,4.0,80,0.00,-DZ BR,OVC VV000 1/4SM,0.00,0.0,WUHU216DAVISVP2,2013-12-06 12:07:00,
2013-12-06 06:12:00,-10.1,-14.6,30.51,NW,309,0.0,2.0,80,0.00,-DZ BR,OVC VV000 1/4SM,0.00,0.0,WUHU216DAVISVP2,2013-12-06 12:12:00,
2013-12-06 06:17:00,-10.0,-14.5,30.51,NW,307,0.0,2.0,80,0.00,-DZ BR,OVC VV000 1/4SM,0.00,0.0,WUHU216DAVISVP2,2013-12-06 12:17:00,
2013-12-06 06:22:00,-10.0,-14.5,30.52,NW,319,0.0,2.0,80,0.00,-DZ BR,OVC VV000 1/4SM,0.00,0.0,WUHU216DAVISVP2,2013-12-06 12:22:00,
2013-12-06 06:27:00,-10.1,-14.6,30.52,WNW,302,0.0,4.0,80,0.00,-DZ BR,OVC VV000 1/4SM,0.00,0.0,WUHU216DAVISVP2,2013-12-06 12:27:00,
2013-12-06 06:32:00,-10.2,-14.7,30.52,NW,310,0.0,4.0,80,0.00,-DZ BR,OVC VV000 1/4SM,0.00,0.0,WUHU216DAVISVP2,2013-12-06 12:32:00,
2013-12-06 06:37:00,-10.4,-15.1,30.53,WNW,302,0.0,0.0,79,0.00,-DZ BR,OVC VV000 1/4SM,0.00,0.0,WUHU216DAVISVP2,2013-12-06 12:37:00,
2013-12-06 06:42:00,-10.6,-15.3,30.53,NW,322,0.0,4.0,79,0.00,-DZ BR,OVC VV000 1/4SM,0.00,0.0,WUHU216DAVISVP2,2013-12-06 12:42:00,
2013-12-06 06:47:00,-10.7,-15.2,30.53,West,271,0.0,4.0,80,0.00,-DZ BR,OVC VV000 1/4SM,0.00,0.0,WUHU216DAVISVP2,2013-12-06 12:47:00,
2013-12-06 06:52:00,-10.8,-15.2,30.53,West,262,0.0,0.0,80,0.00,-DZ BR,OVC VV000 1/4SM,0.00,0.0,WUHU216DAVISVP2,2013-12-06 12:52:00,
2013-12-06 06:57:00,-10.8,-15.2,30.53,WNW,292,0.0,4.0,80,0.00,-DZ BR,OVC VV000 1/4SM,0.00,0.0,WUHU216DAVISVP2,2013-12-06 12:57:00,
2013-12-06 07:02:00,-10.7,-15.1,30.53,NW,318,0.0,5.0,80,0.00,-DZ BR,OVC VV000 1/4SM,0.00,0.0,WUHU216DAVISVP2,2013-12-06 13:02:00,
2013-12-06 07:07:00,-10.6,-15.0,30.53,WNW,288,0.0,5.0,80,0.00,-DZ BR,OVC VV000 1/4SM,0.00,0.0,WUHU216DAVISVP2,2013-12-06 13:07:00,
2013-12-06 07:12:00,-10.6,-15.0,30.53,WNW,292,0.0,5.0,80,0.00,-DZ BR,OVC VV000 1/4SM,0.00,0.0,WUHU216DAVISVP2,2013-12-06 13:12:00,
2013-12-06 07:17:00,-10.6,-15.0,30.54,WSW,252,0.0,3.0,80,0.00,-DZ BR,OVC VV000 1/4SM,0.00,0.0,WUHU216DAVISVP2,2013-12-06 13:17:00,
2013-12-06 07:22:00,-10.6,-15.0,30.54,NW,313,0.0,3.0,80,0.00,-DZ BR,OVC VV000 1/4SM,0.00,0.0,WUHU216DAVISVP2,2013-12-06 13:22:00,
2013-12-06 07:27:00,-10.6,-15.0,30.54,NW,323,0.0,5.0,80,0.00,-DZ BR,OVC VV000 1/4SM,0.00,0.0,WUHU216DAVISVP2,2013-12-06 13:27:00,
2013-12-06 07:32:00,-10.6,-15.0,30.54,WNW,286,0.0,5.0,80,0.00,-DZ BR,OVC VV000 1/4SM,0.00,0.0,WUHU216DAVISVP2,2013-12-06 13:32:00,
2013-12-06 07:37:00,-10.6,-15.1,30.54,West,261,3.0,5.0,80,0.00,-DZ BR,OVC VV000 1/4SM,0.00,0.0,WUHU216DAVISVP2,2013-12-06 13:37:00,
2013-12-06 07:42:00,-10.6,-15.0,30.54,WNW,298,0.0,5.0,80,0.00,-DZ BR,OVC VV000 1/4SM,0.00,5.0,WUHU216DAVISVP2,2013-12-06 13:42:00,
2013-12-06 07:47:00,-10.6,-15.0,30.55,WNW,296,0.0,5.0,80,0.00,-DZ BR,OVC VV000 1/4SM,0.00,5.0,WUHU216DAVISVP2,2013-12-06 13:47:00,
2013-12-06 07:52:00,-10.7,-15.1,30.55,WNW,286,0.0,4.0,80,0.00,-DZ BR,OVC VV000 1/4SM,0.00,9.0,WUHU216DAVISVP2,2013-12-06 13:52:00,
2013-12-06 07:57:00,-10.7,-15.1,30.55,WNW,298,0.0,0.0,80,0.00,-DZ BR,OVC VV000 1/4SM,0.00,11.0,WUHU216DAVISVP2,2013-12-06 13:57:00,
2013-12-06 08:02:00,-10.8,-15.2,30.55,NW,309,0.0,0.0,80,0.00,-DZ BR,OVC VV000 1/4SM,0.00,12.0,WUHU216DAVISVP2,2013-12-06 14:02:00,
2013-12-06 08:07:00,-10.7,-15.1,30.56,WSW,242,0.0,2.0,80,0.00,-DZ BR,OVC VV000 1/4SM,0.00,14.0,WUHU216DAVISVP2,2013-12-06 14:07:00,
2013-12-06 08:12:00,-10.4,-14.9,30.56,West,265,2.0,2.0,80,0.00,-DZ BR,OVC VV000 1/4SM,0.00,16.0,WUHU216DAVISVP2,2013-12-06 14:12:00,
2013-12-06 08:17:00,-10.1,-14.6,30.56,WNW,302,0.0,4.0,80,0.00,-DZ BR,OVC VV000 1/4SM,0.00,18.0,WUHU216DAVISVP2,2013-12-06 14:17:00,
2013-12-06 08:22:00,-9.9,-14.4,30.56,NW,310,0.0,4.0,80,0.00,-DZ BR,OVC VV000 1/4SM,0.00,18.0,WUHU216DAVISVP2,2013-12-06 14:22:00,
2013-12-06 08:27:00,-9.9,-14.4,30.56,West,271,0.0,5.0,80,0.00,-DZ BR,OVC VV000 1/4SM,0.00,19.0,WUHU216DAVISVP2,2013-12-06 14:27:00,
2013-12-06 08:32:00,-9.8,-14.3,30.56,WNW,295,1.0,6.0,80,0.00,-DZ BR,OVC VV000 1/4SM,0.00,25.0,WUHU216DAVISVP2,2013-12-06 14:32:00,
2013-12-06 08:37:00,-9.7,-14.2,30.56,NW,311,1.0,6.0,80,0.00,-DZ BR,OVC VV000 1/4SM,0.00,58.0,WUHU216DAVISVP2,2013-12-06 14:37:00,
2013-12-06 08:42:00,-9.5,-14.0,30.57,NW,314,4.0,6.0,80,0.00,-DZ BR,OVC VV000 1/4SM,0.00,39.0,WUHU216DAVISVP2,2013-12-06 14:42:00,
2013-12-06 08:47:00,-9.3,-13.8,30.57,WNW,287,0.0,5.0,80,0.00,-DZ BR,OVC VV000 1/4SM,0.00,51.0,WUHU216DAVISVP2,2013-12-06 14:47:00,
2013-12-06 08:52:00,-9.1,-13.6,30.57,NW,306,3.0,7.0,80,0.00,-DZ BR,OVC VV000 1/4SM,0.00,42.0,WUHU216DAVISVP2,2013-12-06 14:52:00,
2013-12-06 08:59:00,-9.0,-13.5,30.57,NW,315,4.0,7.0,80,0.00,-DZ BR,OVC VV000 1/4SM,0.00,67.0,WUHU216DAVISVP2,2013-12-06 14:59:00,
2013-12-06 09:04:00,-8.6,-13.1,30.57,WNW,292,3.0,7.0,80,0.00,-DZ BR,OVC VV000 1/4SM,0.00,76.0,WUHU216DAVISVP2,2013-12-06 15:04:00,
2013-12-06 09:09:00,-8.3,-12.8,30.57,NW,309,6.0,8.0,80,0.00,-DZ BR,OVC VV000 1/4SM,0.00,65.0,WUHU216DAVISVP2,2013-12-06 15:09:00,
2013-12-06 09:14:00,-8.1,-12.6,30.58,NW,323,6.0,8.0,80,0.00,-DZ BR,OVC VV000 1/4SM,0.00,167.0,WUHU216DAVISVP2,2013-12-06 15:14:00,
2013-12-06 09:19:00,-7.7,-12.2,30.58,WNW,295,8.0,10.0,80,0.00,-DZ BR,OVC VV000 1/4SM,0.00,167.0,WUHU216DAVISVP2,2013-12-06 15:19:00,
2013-12-06 09:24:00,-7.4,-11.9,30.58,NW,326,1.0,10.0,80,0.00,-DZ BR,OVC VV000 1/4SM,0.00,207.0,WUHU216DAVISVP2,2013-12-06 15:24:00,
2013-12-06 09:29:00,-7.1,-11.9,30.59,WNW,285,5.0,12.0,79,0.00,-DZ BR,OVC VV000 1/4SM,0.00,216.0,WUHU216DAVISVP2,2013-12-06 15:29:00,
2013-12-06 09:34:00,-6.9,-11.7,30.59,West,278,7.0,12.0,79,0.00,-DZ BR,OVC VV000 1/4SM,0.00,223.0,WUHU216DAVISVP2,2013-12-06 15:34:00,
2013-12-06 09:39:00,-6.6,-11.4,30.59,WNW,298,6.0,11.0,79,0.00,-DZ BR,OVC VV000 1/4SM,0.00,230.0,WUHU216DAVISVP2,2013-12-06 15:39:00,
2013-12-06 09:44:00,-6.5,-11.5,30.59,NW,305,6.0,11.0,78,0.00,-DZ BR,OVC VV000 1/4SM,0.00,239.0,WUHU216DAVISVP2,2013-12-06 15:44:00,
2013-12-06 09:49:00,-6.3,-11.4,30.59,WNW,296,2.0,10.0,78,0.00,-DZ BR,OVC VV000 1/4SM,0.00,248.0,WUHU216DAVISVP2,2013-12-06 15:49:00,
2013-12-06 09:54:00,-6.2,-11.3,30.60,NW,315,4.0,10.0,78,0.00,-DZ BR,OVC VV000 1/4SM,0.00,255.0,WUHU216DAVISVP2,2013-12-06 15:54:00,
2013-12-06 09:59:00,-5.9,-11.0,30.60,WNW,302,6.0,10.0,78,0.00,-DZ BR,OVC VV000 1/4SM,0.00,264.0,WUHU216DAVISVP2,2013-12-06 15:59:00,
2013-12-06 10:04:00,-5.7,-10.8,30.60,WNW,296,1.0,9.0,78,0.00,-DZ BR,OVC VV000 1/4SM,0.00,271.0,WUHU216DAVISVP2,2013-12-06 16:04:00,
2013-12-06 10:09:00,-5.3,-10.4,30.61,WNW,286,0.0,9.0,78,0.00,-DZ BR,OVC VV000 1/4SM,0.00,278.0,WUHU216DAVISVP2,2013-12-06 16:09:00,
2013-12-06 10:14:00,-5.0,-10.1,30.61,WNW,294,6.0,8.0,78,0.00,-DZ BR,OVC VV000 1/4SM,0.00,285.0,WUHU216DAVISVP2,2013-12-06 16:14:00,
2013-12-06 10:19:00,-4.9,-10.2,30.61,NW,311,4.0,9.0,77,0.00,-DZ BR,OVC VV000 1/4SM,0.00,294.0,WUHU216DAVISVP2,2013-12-06 16:19:00,
2013-12-06 10:24:00,-4.8,-10.1,30.61,WNW,286,1.0,9.0,77,0.00,-DZ BR,OVC VV000 1/4SM,0.00,301.0,WUHU216DAVISVP2,2013-12-06 16:24:00,
2013-12-06 10:29:00,-4.5,-9.9,30.61,WNW,294,4.0,9.0,77,0.00,-DZ BR,OVC VV000 1/4SM,0.00,308.0,WUHU216DAVISVP2,2013-12-06 16:29:00,
2013-12-06 10:34:00,-4.4,-9.8,30.61,NNW,333,1.0,9.0,77,0.00,-DZ BR,OVC VV000 1/4SM,0.00,313.0,WUHU216DAVISVP2,2013-12-06 16:34:00,
2013-12-06 10:39:00,-4.1,-9.5,30.61,NW,307,6.0,8.0,77,0.00,-DZ BR,OVC VV000 1/4SM,0.00,322.0,WUHU216DAVISVP2,2013-12-06 16:39:00,
2013-12-06 10:44:00,-4.0,-9.6,30.61,WNW,290,6.0,10.0,76,0.00,-DZ BR,OVC VV000 1/4SM,0.00,329.0,WUHU216DAVISVP2,2013-12-06 16:44:00,
2013-12-06 10:49:00,-4.0,-9.6,30.61,WNW,292,6.0,10.0,76,0.00,-DZ BR,OVC VV000 1/4SM,0.00,338.0,WUHU216DAVISVP2,2013-12-06 16:49:00,
2013-12-06 10:54:00,-3.8,-9.4,30.61,NW,309,4.0,11.0,76,0.00,-DZ BR,OVC VV000 1/4SM,0.00,345.0,WUHU216DAVISVP2,2013-12-06 16:54:00,
2013-12-06 10:59:00,-3.8,-9.4,30.61,WSW,240,5.0,11.0,76,0.00,-DZ BR,OVC VV000 1/4SM,0.00,350.0,WUHU216DAVISVP2,2013-12-06 16:59:00,
2013-12-06 11:04:00,-3.6,-9.2,30.61,West,268,9.0,10.0,76,0.00,-DZ BR,OVC VV000 1/4SM,0.00,355.0,WUHU216DAVISVP2,2013-12-06 17:04:00,
2013-12-06 11:09:00,-3.6,-9.5,30.61,NW,317,10.0,11.0,75,0.00,-DZ BR,OVC VV000 1/4SM,0.00,360.0,WUHU216DAVISVP2,2013-12-06 17:09:00,
2013-12-06 11:14:00,-3.6,-9.2,30.61,West,271,4.0,11.0,76,0.00,-DZ BR,OVC VV000 1/4SM,0.00,364.0,WUHU216DAVISVP2,2013-12-06 17:14:00,
2013-12-06 11:19:00,-3.4,-9.3,30.61,WNW,290,5.0,10.0,75,0.00,-DZ BR,OVC VV000 1/4SM,0.00,369.0,WUHU216DAVISVP2,2013-12-06 17:19:00,
2013-12-06 11:24:00,-3.2,-9.1,30.61,WNW,288,3.0,10.0,75,0.00,-DZ BR,OVC VV000 1/4SM,0.00,374.0,WUHU216DAVISVP2,2013-12-06 17:24:00,
2013-12-06 11:29:00,-3.1,-9.0,30.61,NW,306,5.0,10.0,75,0.00,-DZ BR,OVC VV000 1/4SM,0.00,378.0,WUHU216DAVISVP2,2013-12-06 17:29:00,
2013-12-06 11:34:00,-3.0,-8.9,30.61,West,260,5.0,10.0,75,0.00,-DZ BR,OVC VV000 1/4SM,0.00,380.0,WUHU216DAVISVP2,2013-12-06 17:34:00,
2013-12-06 11:39:00,-2.8,-8.7,30.61,West,277,2.0,10.0,75,0.00,-DZ BR,OVC VV000 1/4SM,0.00,383.0,WUHU216DAVISVP2,2013-12-06 17:39:00,
2013-12-06 11:44:00,-2.4,-8.3,30.61,West,268,6.0,7.0,75,0.00,-DZ BR,OVC VV000 1/4SM,0.00,387.0,WUHU216DAVISVP2,2013-12-06 17:44:00,
2013-12-06 11:49:00,-2.2,-8.1,30.61,NW,307,6.0,9.0,75,0.00,-DZ BR,OVC VV000 1/4SM,0.00,390.0,WUHU216DAVISVP2,2013-12-06 17:49:00,
2013-12-06 11:54:00,-2.1,-8.3,30.61,West,277,4.0,9.0,74,0.00,-DZ BR,OVC VV000 1/4SM,0.00,390.0,WUHU216DAVISVP2,2013-12-06 17:54:00,
2013-12-06 11:59:00,-2.0,-8.2,30.61,WNW,302,1.0,8.0,74,0.00,-DZ BR,OVC VV000 1/4SM,0.00,392.0,WUHU216DAVISVP2,2013-12-06 17:59:00,
2013-12-06 12:04:00,-2.0,-8.3,30.61,West,280,0.0,9.0,74,0.00,-DZ BR,OVC VV000 1/4SM,0.00,394.0,WUHU216DAVISVP2,2013-12-06 18:04:00,
2013-12-06 12:09:00,-1.8,-7.8,30.61,WNW,291,8.0,11.0,75,0.00,-DZ BR,OVC VV000 1/4SM,0.00,394.0,WUHU216DAVISVP2,2013-12-06 18:09:00,
2013-12-06 12:14:00,-1.7,-7.9,30.61,West,269,0.0,11.0,74,0.00,-DZ BR,OVC VV000 1/4SM,0.00,394.0,WUHU216DAVISVP2,2013-12-06 18:14:00,
2013-12-06 12:19:00,-1.5,-7.7,30.61,NW,310,5.0,10.0,74,0.00,-DZ BR,OVC VV000 1/4SM,0.00,394.0,WUHU216DAVISVP2,2013-12-06 18:19:00,
2013-12-06 12:24:00,-1.6,-7.8,30.61,WNW,294,3.0,9.0,74,0.00,-DZ BR,OVC VV000 1/4SM,0.00,392.0,WUHU216DAVISVP2,2013-12-06 18:24:00,
2013-12-06 12:29:00,-1.7,-7.9,30.61,NW,310,6.0,11.0,74,0.00,-DZ BR,OVC VV000 1/4SM,0.00,392.0,WUHU216DAVISVP2,2013-12-06 18:29:00,
2013-12-06 12:34:00,-1.6,-7.8,30.61,NW,311,4.0,11.0,74,0.00,-DZ BR,OVC VV000 1/4SM,0.00,390.0,WUHU216DAVISVP2,2013-12-06 18:34:00,
2013-12-06 12:39:00,-1.6,-7.8,30.61,WNW,296,5.0,11.0,74,0.00,-DZ BR,OVC VV000 1/4SM,0.00,387.0,WUHU216DAVISVP2,2013-12-06 18:39:00,
2013-12-06 12:44:00,-1.3,-7.5,30.61,NW,307,4.0,11.0,74,0.00,-DZ BR,OVC VV000 1/4SM,0.00,385.0,WUHU216DAVISVP2,2013-12-06 18:44:00,
2013-12-06 12:49:00,-1.1,-7.4,30.61,NW,324,2.0,8.0,74,0.00,-DZ BR,OVC VV000 1/4SM,0.00,383.0,WUHU216DAVISVP2,2013-12-06 18:49:00,
2013-12-06 12:54:00,-0.8,-7.1,30.61,NW,319,4.0,10.0,74,0.00,-DZ BR,OVC VV000 1/4SM,0.00,378.0,WUHU216DAVISVP2,2013-12-06 18:54:00,
2013-12-06 12:59:00,-0.6,-6.9,30.60,NW,307,0.0,10.0,74,0.00,-DZ BR,OVC VV000 1/4SM,0.00,376.0,WUHU216DAVISVP2,2013-12-06 18:59:00,
2013-12-06 13:04:00,-0.4,-6.7,30.61,NW,324,2.0,10.0,74,0.00,-DZ BR,OVC VV000 1/4SM,0.00,373.0,WUHU216DAVISVP2,2013-12-06 19:04:00,
2013-12-06 13:09:00,-0.4,-6.9,30.60,WNW,297,5.0,9.0,73,0.00,-DZ BR,OVC VV000 1/4SM,0.00,369.0,WUHU216DAVISVP2,2013-12-06 19:09:00,
2013-12-06 13:14:00,-0.5,-7.0,30.60,NW,311,5.0,9.0,73,0.00,-DZ BR,OVC VV000 1/4SM,0.00,366.0,WUHU216DAVISVP2,2013-12-06 19:14:00,
2013-12-06 13:19:00,-0.7,-7.2,30.60,West,280,7.0,9.0,73,0.00,-DZ BR,OVC VV000 1/4SM,0.00,360.0,WUHU216DAVISVP2,2013-12-06 19:19:00,
2013-12-06 13:24:00,-0.5,-7.0,30.61,WNW,302,1.0,9.0,73,0.00,-DZ BR,OVC VV000 1/4SM,0.00,353.0,WUHU216DAVISVP2,2013-12-06 19:24:00,
2013-12-06 13:29:00,-0.3,-6.9,30.60,NW,306,4.0,9.0,73,0.00,-DZ BR,OVC VV000 1/4SM,0.00,350.0,WUHU216DAVISVP2,2013-12-06 19:29:00,
2013-12-06 13:34:00,-0.4,-6.9,30.60,NW,319,3.0,9.0,73,0.00,-DZ BR,OVC VV000 1/4SM,0.00,345.0,WUHU216DAVISVP2,2013-12-06 19:34:00,
2013-12-06 13:39:00,-0.4,-6.9,30.60,NW,306,5.0,10.0,73,0.00,-DZ BR,OVC VV000 1/4SM,0.00,338.0,WUHU216DAVISVP2,2013-12-06 19:39:00,
2013-12-06 13:44:00,-0.6,-7.1,30.60,NW,325,1.0,12.0,73,0.00,-DZ BR,OVC VV000 1/4SM,0.00,330.0,WUHU216DAVISVP2,2013-12-06 19:44:00,
2013-12-06 13:49:00,-0.7,-7.2,30.60,NW,316,4.0,12.0,73,0.00,-DZ BR,OVC VV000 1/4SM,0.00,325.0,WUHU216DAVISVP2,2013-12-06 19:49:00,
2013-12-06 13:54:00,-0.6,-7.1,30.60,West,263,4.0,12.0,73,0.00,-DZ BR,OVC VV000 1/4SM,0.00,318.0,WUHU216DAVISVP2,2013-12-06 19:54:00,
2013-12-06 13:59:00,-0.5,-7.0,30.60,WNW,284,8.0,12.0,73,0.00,-DZ BR,OVC VV000 1/4SM,0.00,311.0,WUHU216DAVISVP2,2013-12-06 19:59:00,
2013-12-06 14:04:00,-0.5,-7.0,30.61,NW,315,2.0,9.0,73,0.00,-DZ BR,OVC VV000 1/4SM,0.00,301.0,WUHU216DAVISVP2,2013-12-06 20:04:00,
2013-12-06 14:09:00,-0.5,-7.0,30.60,NW,315,4.0,9.0,73,0.00,-DZ BR,OVC VV000 1/4SM,0.00,294.0,WUHU216DAVISVP2,2013-12-06 20:09:00,
2013-12-06 14:14:00,-0.3,-6.9,30.60,NW,318,6.0,9.0,73,0.00,-DZ BR,OVC VV000 1/4SM,0.00,287.0,WUHU216DAVISVP2,2013-12-06 20:14:00,
2013-12-06 14:19:00,-0.4,-7.2,30.61,WNW,294,5.0,9.0,72,0.00,-DZ BR,OVC VV000 1/4SM,0.00,278.0,WUHU216DAVISVP2,2013-12-06 20:19:00,
2013-12-06 14:24:00,-0.7,-7.5,30.61,NW,312,8.0,11.0,72,0.00,-DZ BR,OVC VV000 1/4SM,0.00,269.0,WUHU216DAVISVP2,2013-12-06 20:24:00,
2013-12-06 14:29:00,-0.8,-7.3,30.61,WNW,284,4.0,11.0,73,0.00,-DZ BR,OVC VV000 1/4SM,0.00,258.0,WUHU216DAVISVP2,2013-12-06 20:29:00,
2013-12-06 14:34:00,-0.7,-7.2,30.61,WNW,303,5.0,11.0,73,0.00,-DZ BR,OVC VV000 1/4SM,0.00,251.0,WUHU216DAVISVP2,2013-12-06 20:34:00,
2013-12-06 14:39:00,-0.7,-7.2,30.61,WNW,300,5.0,11.0,73,0.00,-DZ BR,OVC VV000 1/4SM,0.00,243.0,WUHU216DAVISVP2,2013-12-06 20:39:00,
2013-12-06 14:44:00,-0.7,-7.2,30.61,WNW,302,6.0,9.0,73,0.00,-DZ BR,OVC VV000 1/4SM,0.00,232.0,WUHU216DAVISVP2,2013-12-06 20:44:00,
2013-12-06 14:49:00,-0.6,-7.1,30.61,West,269,0.0,9.0,73,0.00,-DZ BR,OVC VV000 1/4SM,0.00,221.0,WUHU216DAVISVP2,2013-12-06 20:49:00,
2013-12-06 14:54:00,-0.4,-7.2,30.62,WNW,283,1.0,7.0,72,0.00,-DZ BR,OVC VV000 1/4SM,0.00,213.0,WUHU216DAVISVP2,2013-12-06 20:54:00,
2013-12-06 14:59:00,-0.4,-7.2,30.62,West,267,0.0,8.0,72,0.00,-DZ BR,OVC VV000 1/4SM,0.00,200.0,WUHU216DAVISVP2,2013-12-06 20:59:00,
2013-12-06 15:04:00,-0.4,-7.2,30.62,WNW,302,0.0,8.0,72,0.00,-DZ BR,OVC VV000 1/4SM,0.00,192.0,WUHU216DAVISVP2,2013-12-06 21:04:00,
2013-12-06 15:09:00,-0.5,-7.3,30.62,NW,310,0.0,8.0,72,0.00,-DZ BR,OVC VV000 1/4SM,0.00,179.0,WUHU216DAVISVP2,2013-12-06 21:09:00,
2013-12-06 15:14:00,-0.8,-7.6,30.63,West,273,2.0,9.0,72,0.00,-DZ BR,OVC VV000 1/4SM,0.00,171.0,WUHU216DAVISVP2,2013-12-06 21:14:00,
2013-12-06 15:19:00,-0.9,-7.7,30.63,WNW,286,5.0,9.0,72,0.00,-DZ BR,OVC VV000 1/4SM,0.00,156.0,WUHU216DAVISVP2,2013-12-06 21:19:00,
2013-12-06 15:24:00,-1.3,-8.1,30.63,SW,227,4.0,9.0,72,0.00,-DZ BR,OVC VV000 1/4SM,0.00,107.0,WUHU216DAVISVP2,2013-12-06 21:24:00,
2013-12-06 15:29:00,-1.6,-8.4,30.63,WNW,300,1.0,10.0,72,0.00,-DZ BR,OVC VV000 1/4SM,0.00,30.0,WUHU216DAVISVP2,2013-12-06 21:29:00,
2013-12-06 15:34:00,-2.0,-8.5,30.63,West,269,4.0,10.0,73,0.00,-DZ BR,OVC VV000 1/4SM,0.00,32.0,WUHU216DAVISVP2,2013-12-06 21:34:00,
2013-12-06 15:39:00,-2.4,-8.9,30.63,West,281,3.0,10.0,73,0.00,-DZ BR,OVC VV000 1/4SM,0.00,26.0,WUHU216DAVISVP2,2013-12-06 21:39:00,
2013-12-06 15:44:00,-2.4,-8.7,30.64,WSW,252,1.0,8.0,74,0.00,-DZ BR,OVC VV000 1/4SM,0.00,25.0,WUHU216DAVISVP2,2013-12-06 21:44:00,
2013-12-06 15:49:00,-2.6,-8.8,30.63,NW,307,1.0,8.0,74,0.00,-DZ BR,OVC VV000 1/4SM,0.00,23.0,WUHU216DAVISVP2,2013-12-06 21:49:00,
2013-12-06 15:54:00,-2.7,-8.9,30.64,WNW,290,8.0,8.0,74,0.00,-DZ BR,OVC VV000 1/4SM,0.00,21.0,WUHU216DAVISVP2,2013-12-06 21:54:00,
2013-12-06 15:59:00,-2.8,-9.0,30.64,NW,314,1.0,8.0,74,0.00,-DZ BR,OVC VV000 1/4SM,0.00,19.0,WUHU216DAVISVP2,2013-12-06 21:59:00,
2013-12-06 16:04:00,-3.0,-9.2,30.63,WNW,286,1.0,8.0,74,0.00,-DZ BR,OVC VV000 1/4SM,0.00,16.0,WUHU216DAVISVP2,2013-12-06 22:04:00,
2013-12-06 16:09:00,-3.2,-9.4,30.63,WNW,291,0.0,8.0,74,0.00,-DZ BR,OVC VV000 1/4SM,0.00,14.0,WUHU216DAVISVP2,2013-12-06 22:09:00,
2013-12-06 16:14:00,-3.4,-9.3,30.64,West,263,1.0,9.0,75,0.00,-DZ BR,OVC VV000 1/4SM,0.00,12.0,WUHU216DAVISVP2,2013-12-06 22:14:00,
2013-12-06 16:19:00,-3.5,-9.4,30.64,West,272,1.0,9.0,75,0.00,-DZ BR,OVC VV000 1/4SM,0.00,9.0,WUHU216DAVISVP2,2013-12-06 22:19:00,
2013-12-06 16:24:00,-3.6,-9.5,30.64,NNW,329,2.0,8.0,75,0.00,-DZ BR,OVC VV000 1/4SM,0.00,7.0,WUHU216DAVISVP2,2013-12-06 22:24:00,
2013-12-06 16:29:00,-3.9,-9.8,30.64,NW,310,2.0,7.0,75,0.00,-DZ BR,OVC VV000 1/4SM,0.00,5.0,WUHU216DAVISVP2,2013-12-06 22:29:00,
2013-12-06 16:34:00,-4.2,-10.1,30.65,West,272,1.0,7.0,75,0.00,-DZ BR,OVC VV000 1/4SM,0.00,0.0,WUHU216DAVISVP2,2013-12-06 22:34:00,
2013-12-06 16:39:00,-4.4,-10.3,30.65,NW,325,0.0,10.0,75,0.00,-DZ BR,OVC VV000 1/4SM,0.00,0.0,WUHU216DAVISVP2,2013-12-06 22:39:00,
2013-12-06 16:44:00,-4.5,-10.4,30.65,West,263,0.0,10.0,75,0.00,-DZ BR,OVC VV000 1/4SM,0.00,0.0,WUHU216DAVISVP2,2013-12-06 22:44:00,
2013-12-06 16:49:00,-4.6,-10.5,30.65,WNW,299,3.0,8.0,75,0.00,-DZ BR,OVC VV000 1/4SM,0.00,0.0,WUHU216DAVISVP2,2013-12-06 22:49:00,
2013-12-06 16:54:00,-4.8,-10.4,30.65,WNW,301,4.0,7.0,76,0.00,-DZ BR,OVC VV000 1/4SM,0.00,0.0,WUHU216DAVISVP2,2013-12-06 22:54:00,
2013-12-06 16:59:00,-4.9,-10.5,30.65,WNW,302,4.0,8.0,76,0.00,-DZ BR,OVC VV000 1/4SM,0.00,0.0,WUHU216DAVISVP2,2013-12-06 22:59:00,
2013-12-06 17:04:00,-5.1,-10.7,30.65,West,266,2.0,8.0,76,0.00,-DZ BR,OVC VV000 1/4SM,0.00,0.0,WUHU216DAVISVP2,2013-12-06 23:04:00,
2013-12-06 17:09:00,-5.2,-10.8,30.65,West,277,4.0,7.0,76,0.00,-DZ BR,OVC VV000 1/4SM,0.00,0.0,WUHU216DAVISVP2,2013-12-06 23:09:00,
2013-12-06 17:14:00,-5.3,-10.9,30.65,WNW,294,7.0,8.0,76,0.00,-DZ BR,OVC VV000 1/4SM,0.00,0.0,WUHU216DAVISVP2,2013-12-06 23:14:00,
2013-12-06 17:19:00,-5.5,-11.1,30.65,WNW,282,2.0,8.0,76,0.00,-DZ BR,OVC VV000 1/4SM,0.00,0.0,WUHU216DAVISVP2,2013-12-06 23:19:00,
2013-12-06 17:24:00,-5.6,-11.2,30.65,WSW,244,6.0,8.0,76,0.00,-DZ BR,OVC VV000 1/4SM,0.00,0.0,WUHU216DAVISVP2,2013-12-06 23:24:00,
2013-12-06 17:29:00,-5.7,-11.3,30.65,West,269,9.0,9.0,76,0.00,-DZ BR,OVC VV000 1/4SM,0.00,0.0,WUHU216DAVISVP2,2013-12-06 23:29:00,
2013-12-06 17:34:00,-5.9,-11.5,30.66,WNW,295,5.0,9.0,76,0.00,-DZ BR,OVC VV000 1/4SM,0.00,0.0,WUHU216DAVISVP2,2013-12-06 23:34:00,
2013-12-06 17:39:00,-6.1,-11.7,30.66,WNW,295,0.0,9.0,76,0.00,-DZ BR,OVC VV000 1/4SM,0.00,0.0,WUHU216DAVISVP2,2013-12-06 23:39:00,
2013-12-06 17:44:00,-6.3,-11.9,30.66,NW,314,0.0,8.0,76,0.00,-DZ BR,OVC VV000 1/4SM,0.00,0.0,WUHU216DAVISVP2,2013-12-06 23:44:00,
2013-12-06 17:49:00,-6.5,-12.1,30.66,West,277,0.0,10.0,76,0.00,-DZ BR,OVC VV000 1/4SM,0.00,0.0,WUHU216DAVISVP2,2013-12-06 23:49:00,
2013-12-06 17:54:00,-6.6,-12.2,30.66,WSW,254,4.0,11.0,76,0.00,-DZ BR,OVC VV000 1/4SM,0.00,0.0,WUHU216DAVISVP2,2013-12-06 23:54:00,
2013-12-06 17:59:00,-6.8,-12.4,30.66,WNW,284,5.0,11.0,76,0.00,-DZ BR,OVC VV000 1/4SM,0.00,0.0,WUHU216DAVISVP2,2013-12-06 23:59:00,
2013-12-06 18:04:00,-6.9,-12.4,30.67,NW,318,1.0,10.0,76,0.00,-DZ BR,OVC VV000 1/4SM,0.00,0.0,WUHU216DAVISVP2,2013-12-07 00:04:00,
2013-12-06 18:09:00,-7.0,-12.5,30.67,West,277,4.0,10.0,76,0.00,-DZ BR,OVC VV000 1/4SM,0.00,0.0,WUHU216DAVISVP2,2013-12-07 00:09:00,
2013-12-06 18:14:00,-7.2,-12.7,30.67,NW,317,2.0,10.0,76,0.00,-DZ BR,OVC VV000 1/4SM,0.00,0.0,WUHU216DAVISVP2,2013-12-07 00:14:00,
2013-12-06 18:19:00,-7.3,-12.8,30.67,NW,315,1.0,12.0,76,0.00,-DZ BR,OVC VV000 1/4SM,0.00,0.0,WUHU216DAVISVP2,2013-12-07 00:19:00,
2013-12-06 18:24:00,-7.5,-13.0,30.67,West,279,1.0,12.0,76,0.00,-DZ BR,OVC VV000 1/4SM,0.00,0.0,WUHU216DAVISVP2,2013-12-07 00:24:00,
2013-12-06 18:29:00,-7.6,-13.1,30.67,NW,312,6.0,15.0,76,0.00,-DZ BR,OVC VV000 1/4SM,0.00,0.0,WUHU216DAVISVP2,2013-12-07 00:29:00,
2013-12-06 18:34:00,-7.7,-13.2,30.67,NW,317,6.0,15.0,76,0.00,-DZ BR,OVC VV000 1/4SM,0.00,0.0,WUHU216DAVISVP2,2013-12-07 00:34:00,
2013-12-06 18:39:00,-7.8,-13.3,30.68,WNW,295,6.0,13.0,76,0.00,-DZ BR,OVC VV000 1/4SM,0.00,0.0,WUHU216DAVISVP2,2013-12-07 00:39:00,
2013-12-06 18:44:00,-7.9,-13.4,30.68,NW,306,7.0,11.0,76,0.00,-DZ BR,OVC VV000 1/4SM,0.00,0.0,WUHU216DAVISVP2,2013-12-07 00:44:00,
2013-12-06 18:49:00,-8.1,-13.6,30.68,NW,313,2.0,12.0,76,0.00,-DZ BR,OVC VV000 1/4SM,0.00,0.0,WUHU216DAVISVP2,2013-12-07 00:49:00,
2013-12-06 18:54:00,-8.2,-13.7,30.68,NW,319,5.0,12.0,76,0.00,-DZ BR,OVC VV000 1/4SM,0.00,0.0,WUHU216DAVISVP2,2013-12-07 00:54:00,
2013-12-06 18:59:00,-8.4,-13.9,30.68,NW,305,10.0,12.0,76,0.00,-DZ BR,OVC VV000 1/4SM,0.00,0.0,WUHU216DAVISVP2,2013-12-07 00:59:00,
2013-12-06 19:04:00,-8.5,-14.0,30.69,NW,321,5.0,10.0,76,0.00,-DZ BR,OVC VV000 1/4SM,0.00,0.0,WUHU216DAVISVP2,2013-12-07 01:04:00,
2013-12-06 19:09:00,-8.6,-14.1,30.69,West,262,8.0,10.0,76,0.00,-DZ BR,OVC VV000 1/4SM,0.00,0.0,WUHU216DAVISVP2,2013-12-07 01:09:00,
2013-12-06 19:15:00,-8.7,-14.2,30.69,WNW,299,5.0,10.0,76,0.00,-DZ BR,OVC VV000 1/4SM,0.00,0.0,WUHU216DAVISVP2,2013-12-07 01:15:00,
2013-12-06 19:19:00,-8.9,-14.4,30.69,NW,319,6.0,10.0,76,0.00,-DZ BR,OVC VV000 1/4SM,0.00,0.0,WUHU216DAVISVP2,2013-12-07 01:19:00,
2013-12-06 19:24:00,-9.0,-14.5,30.69,NW,314,2.0,10.0,76,0.00,-DZ BR,OVC VV000 1/4SM,0.00,0.0,WUHU216DAVISVP2,2013-12-07 01:24:00,
2013-12-06 19:30:00,-9.1,-14.6,30.69,NW,309,6.0,10.0,76,0.00,-DZ BR,OVC VV000 1/4SM,0.00,0.0,WUHU216DAVISVP2,2013-12-07 01:30:00,
2013-12-06 19:34:00,-9.2,-14.7,30.69,West,269,6.0,11.0,76,0.00,-DZ BR,OVC VV000 1/4SM,0.00,0.0,WUHU216DAVISVP2,2013-12-07 01:34:00,
2013-12-06 19:39:00,-9.3,-14.8,30.69,West,275,7.0,11.0,76,0.00,-DZ BR,OVC VV000 1/4SM,0.00,0.0,WUHU216DAVISVP2,2013-12-07 01:39:00,
2013-12-06 19:44:00,-9.4,-14.9,30.69,NW,304,1.0,11.0,76,0.00,-DZ BR,OVC VV000 1/4SM,0.00,0.0,WUHU216DAVISVP2,2013-12-07 01:44:00,
2013-12-06 19:49:00,-9.5,-15.0,30.69,WNW,299,5.0,11.0,76,0.00,-DZ BR,OVC VV000 1/4SM,0.00,0.0,WUHU216DAVISVP2,2013-12-07 01:49:00,
2013-12-06 19:54:00,-9.6,-15.1,30.69,NW,308,7.0,11.0,76,0.00,-DZ BR,OVC VV000 1/4SM,0.00,0.0,WUHU216DAVISVP2,2013-12-07 01:54:00,
2013-12-06 19:59:00,-9.8,-15.3,30.70,NW,304,7.0,9.0,76,0.00,-DZ BR,OVC VV000 1/4SM,0.00,0.0,WUHU216DAVISVP2,2013-12-07 01:59:00,
2013-12-06 20:04:00,-9.8,-15.3,30.70,WNW,298,1.0,10.0,76,0.00,-DZ BR,OVC VV000 1/4SM,0.00,0.0,WUHU216DAVISVP2,2013-12-07 02:04:00,
2013-12-06 20:09:00,-9.9,-15.4,30.70,WNW,295,1.0,10.0,76,0.00,-DZ BR,OVC VV000 1/4SM,0.00,0.0,WUHU216DAVISVP2,2013-12-07 02:09:00,
2013-12-06 20:14:00,-10.0,-15.5,30.70,WNW,303,5.0,8.0,76,0.00,-DZ BR,OVC VV000 1/4SM,0.00,0.0,WUHU216DAVISVP2,2013-12-07 02:14:00,
2013-12-06 20:19:00,-10.2,-15.7,30.70,West,269,3.0,8.0,76,0.00,-DZ BR,OVC VV000 1/4SM,0.00,0.0,WUHU216DAVISVP2,2013-12-07 02:19:00,
2013-12-06 20:24:00,-10.3,-15.8,30.71,WNW,300,5.0,7.0,76,0.00,-DZ BR,OVC VV000 1/4SM,0.00,0.0,WUHU216DAVISVP2,2013-12-07 02:24:00,
2013-12-06 20:29:00,-10.4,-15.8,30.71,NW,304,3.0,7.0,76,0.00,-DZ BR,OVC VV000 1/4SM,0.00,0.0,WUHU216DAVISVP2,2013-12-07 02:29:00,
2013-12-06 20:34:00,-10.5,-15.7,30.71,NW,325,1.0,6.0,77,0.00,-DZ BR,OVC VV000 1/4SM,0.00,0.0,WUHU216DAVISVP2,2013-12-07 02:34:00,
2013-12-06 20:39:00,-10.6,-16.0,30.71,WNW,296,0.0,5.0,76,0.00,-DZ BR,OVC VV000 1/4SM,0.00,0.0,WUHU216DAVISVP2,2013-12-07 02:39:00,
2013-12-06 20:44:00,-10.7,-15.9,30.71,WNW,283,1.0,6.0,77,0.00,-DZ BR,OVC VV000 1/4SM,0.00,0.0,WUHU216DAVISVP2,2013-12-07 02:44:00,
2013-12-06 20:49:00,-10.9,-16.3,30.71,NW,308,0.0,6.0,76,0.00,-DZ BR,OVC VV000 1/4SM,0.00,0.0,WUHU216DAVISVP2,2013-12-07 02:49:00,
2013-12-06 20:54:00,-11.0,-16.2,30.72,WNW,294,1.0,5.0,77,0.00,-DZ BR,OVC VV000 1/4SM,0.00,0.0,WUHU216DAVISVP2,2013-12-07 02:54:00,
2013-12-06 20:59:00,-11.2,-16.4,30.72,WNW,294,0.0,5.0,77,0.00,-DZ BR,OVC VV000 1/4SM,0.00,0.0,WUHU216DAVISVP2,2013-12-07 02:59:00,
2013-12-06 21:04:00,-11.3,-16.5,30.72,NW,306,2.0,5.0,77,0.00,-DZ BR,OVC VV000 1/4SM,0.00,0.0,WUHU216DAVISVP2,2013-12-07 03:04:00,
2013-12-06 21:09:00,-11.4,-16.6,30.72,NW,311,1.0,5.0,77,0.00,-DZ BR,OVC VV000 1/4SM,0.00,0.0,WUHU216DAVISVP2,2013-12-07 03:09:00,
2013-12-06 21:14:00,-11.4,-16.6,30.72,NW,311,0.0,4.0,77,0.00,-DZ BR,OVC VV000 1/4SM,0.00,0.0,WUHU216DAVISVP2,2013-12-07 03:14:00,
2013-12-06 21:19:00,-11.5,-16.7,30.72,NW,311,0.0,4.0,77,0.00,-DZ BR,OVC VV000 1/4SM,0.00,0.0,WUHU216DAVISVP2,2013-12-07 03:19:00,
2013-12-06 21:24:00,-11.6,-16.8,30.72,NW,311,0.0,4.0,77,0.00,-DZ BR,OVC VV000 1/4SM,0.00,0.0,WUHU216DAVISVP2,2013-12-07 03:24:00,
2013-12-06 21:29:00,-11.8,-17.0,30.72,NW,311,0.0,4.0,77,0.00,-DZ BR,OVC VV000 1/4SM,0.00,0.0,WUHU216DAVISVP2,2013-12-07 03:29:00,
2013-12-06 21:34:00,-11.9,-17.0,30.72,NW,311,0.0,4.0,77,0.00,-DZ BR,OVC VV000 1/4SM,0.00,0.0,WUHU216DAVISVP2,2013-12-07 03:34:00,
2013-12-06 21:39:00,-12.0,-17.1,30.73,West,278,0.0,4.0,77,0.00,-DZ BR,OVC VV000 1/4SM,0.00,0.0,WUHU216DAVISVP2,2013-12-07 03:39:00,
2013-12-06 21:44:00,-12.1,-17.2,30.73,NW,306,1.0,4.0,77,0.00,-DZ BR,OVC VV000 1/4SM,0.00,0.0,WUHU216DAVISVP2,2013-12-07 03:44:00,
2013-12-06 21:49:00,-12.1,-17.3,30.73,NW,312,0.0,5.0,77,0.00,-DZ BR,OVC VV000 1/4SM,0.00,0.0,WUHU216DAVISVP2,2013-12-07 03:49:00,
2013-12-06 21:54:00,-12.1,-17.0,30.73,WNW,295,2.0,5.0,78,0.00,-DZ BR,OVC VV000 1/4SM,0.00,0.0,WUHU216DAVISVP2,2013-12-07 03:54:00,
2013-12-06 21:59:00,-12.2,-17.3,30.73,WNW,293,0.0,4.0,77,0.00,-DZ BR,OVC VV000 1/4SM,0.00,0.0,WUHU216DAVISVP2,2013-12-07 03:59:00,
2013-12-06 22:04:00,-12.2,-17.3,30.73,NW,311,4.0,5.0,77,0.00,-DZ BR,OVC VV000 1/4SM,0.00,0.0,WUHU216DAVISVP2,2013-12-07 04:04:00,
2013-12-06 22:10:00,-12.2,-17.1,30.73,NW,304,1.0,5.0,78,0.00,-DZ BR,OVC VV000 1/4SM,0.00,0.0,WUHU216DAVISVP2,2013-12-07 04:10:00,
2013-12-06 22:14:00,-12.1,-17.0,30.73,NW,316,2.0,6.0,78,0.00,-DZ BR,OVC VV000 1/4SM,0.00,0.0,WUHU216DAVISVP2,2013-12-07 04:14:00,
2013-12-06 22:19:00,-12.0,-16.9,30.74,WNW,294,4.0,6.0,78,0.00,-DZ BR,OVC VV000 1/4SM,0.00,0.0,WUHU216DAVISVP2,2013-12-07 04:19:00,
2013-12-06 22:24:00,-12.0,-16.9,30.74,NW,304,4.0,6.0,78,0.00,-DZ BR,OVC VV000 1/4SM,0.00,0.0,WUHU216DAVISVP2,2013-12-07 04:24:00,
2013-12-06 22:29:00,-12.1,-17.0,30.74,WNW,293,2.0,6.0,78,0.00,-DZ BR,OVC VV000 1/4SM,0.00,0.0,WUHU216DAVISVP2,2013-12-07 04:29:00,
2013-12-06 22:34:00,-12.2,-17.3,30.74,NW,313,4.0,5.0,77,0.00,-DZ BR,OVC VV000 1/4SM,0.00,0.0,WUHU216DAVISVP2,2013-12-07 04:34:00,
2013-12-06 22:39:00,-12.4,-17.5,30.73,WNW,302,0.0,5.0,77,0.00,-DZ BR,OVC VV000 1/4SM,0.00,0.0,WUHU216DAVISVP2,2013-12-07 04:39:00,
2013-12-06 22:44:00,-12.5,-17.4,30.74,West,277,4.0,7.0,78,0.00,-DZ BR,OVC VV000 1/4SM,0.00,0.0,WUHU216DAVISVP2,2013-12-07 04:44:00,
2013-12-06 22:49:00,-12.5,-17.4,30.74,West,268,2.0,7.0,78,0.00,-DZ BR,OVC VV000 1/4SM,0.00,0.0,WUHU216DAVISVP2,2013-12-07 04:49:00,
2013-12-06 22:54:00,-12.5,-17.4,30.74,WNW,294,0.0,7.0,78,0.00,-DZ BR,OVC VV000 1/4SM,0.00,0.0,WUHU216DAVISVP2,2013-12-07 04:54:00,
2013-12-06 22:59:00,-12.5,-17.4,30.74,NW,314,0.0,6.0,78,0.00,-DZ BR,OVC VV000 1/4SM,0.00,0.0,WUHU216DAVISVP2,2013-12-07 04:59:00,
2013-12-06 23:01:00,-12.5,-17.4,30.74,WNW,284,1.0,6.0,78,0.00,-DZ BR,OVC VV000 1/4SM,0.00,0.0,WUHU216DAVISVP2,2013-12-07 05:01:00,
2013-12-06 23:06:00,-12.6,-17.5,30.75,WSW,248,0.0,6.0,78,0.00,-DZ BR,OVC VV000 1/4SM,0.00,0.0,WUHU216DAVISVP2,2013-12-07 05:06:00,
2013-12-06 23:11:00,-12.6,-17.5,30.75,West,277,0.0,4.0,78,0.00,-DZ BR,OVC VV000 1/4SM,0.00,0.0,WUHU216DAVISVP2,2013-12-07 05:11:00,
2013-12-06 23:16:00,-12.5,-17.4,30.75,NW,310,0.0,4.0,78,0.00,-DZ BR,OVC VV000 1/4SM,0.00,0.0,WUHU216DAVISVP2,2013-12-07 05:16:00,
2013-12-06 23:17:00,-12.5,-17.4,30.74,West,281,0.0,4.0,78,0.00,-DZ BR,OVC VV000 1/4SM,0.00,0.0,WUHU216DAVISVP2,2013-12-07 05:17:00,
2013-12-06 23:22:00,-12.5,-17.4,30.74,West,273,0.0,3.0,78,0.00,-DZ BR,OVC VV000 1/4SM,0.00,0.0,WUHU216DAVISVP2,2013-12-07 05:22:00,
2013-12-06 23:27:00,-12.5,-17.4,30.74,West,277,1.0,5.0,78,0.00,-DZ BR,OVC VV000 1/4SM,0.00,0.0,WUHU216DAVISVP2,2013-12-07 05:27:00,
2013-12-06 23:32:00,-12.5,-17.4,30.75,West,278,1.0,5.0,78,0.00,-DZ BR,OVC VV000 1/4SM,0.00,0.0,WUHU216DAVISVP2,2013-12-07 05:32:00,
2013-12-06 23:37:00,-12.5,-17.4,30.75,West,273,0.0,4.0,78,0.00,-DZ BR,OVC VV000 1/4SM,0.00,0.0,WUHU216DAVISVP2,2013-12-07 05:37:00,
2013-12-06 23:42:00,-12.6,-17.5,30.75,WNW,292,0.0,4.0,78,0.00,-DZ BR,OVC VV000 1/4SM,0.00,0.0,WUHU216DAVISVP2,2013-12-07 05:42:00,
2013-12-06 23:47:00,-12.6,-17.5,30.75,West,279,3.0,5.0,78,0.00,-DZ BR,OVC VV000 1/4SM,0.00,0.0,WUHU216DAVISVP2,2013-12-07 05:47:00,
2013-12-06 23:52:00,-12.6,-17.5,30.76,West,275,0.0,5.0,78,0.00,-DZ BR,OVC VV000 1/4SM,0.00,0.0,WUHU216DAVISVP2,2013-12-07 05:52:00,
2013-12-06 23:57:00,-12.6,-17.5,30.76,NNW,336,1.0,5.0,78,0.00,-DZ BR,OVC VV000 1/4SM,0.00,0.0,WUHU216DAVISVP2,2013-12-07 05:57:00,